createdAt,value
2022-10-03T00:02:33.098Z,99.90
2022-10-03T00:05:16.025Z,99.90
2022-10-03T00:08:03.569Z,99.90
2022-10-03T00:10:43.320Z,99.90
2022-10-03T00:13:24.315Z,99.90
2022-10-03T00:16:04.119Z,99.90
2022-10-03T00:18:46.192Z,99.90
2022-10-03T00:21:25.515Z,99.90
2022-10-03T00:24:03.988Z,99.90
2022-10-03T00:26:48.007Z,99.90
2022-10-03T00:29:37.577Z,99.90
2022-10-03T00:32:17.509Z,99.90
2022-10-03T00:35:03.711Z,99.90
2022-10-03T00:37:36.359Z,99.90
2022-10-03T00:40:40.007Z,99.90
2022-10-03T00:43:43.134Z,99.90
2022-10-03T00:46:51.474Z,99.90
2022-10-03T00:49:57.977Z,99.90
2022-10-03T00:52:50.337Z,99.90
2022-10-03T00:55:28.259Z,99.90
2022-10-03T00:58:20.225Z,99.90
2022-10-03T01:00:52.129Z,99.90
2022-10-03T01:03:35.638Z,99.90
2022-10-03T01:06:17.871Z,99.90
2022-10-03T01:09:24.868Z,99.90
2022-10-03T01:12:08.316Z,99.90
2022-10-03T01:14:53.839Z,99.90
2022-10-03T01:17:33.524Z,99.90
2022-10-03T01:20:15.520Z,99.90
2022-10-03T01:23:19.019Z,99.90
2022-10-03T01:25:53.969Z,99.90
2022-10-03T01:28:59.729Z,99.90
2022-10-03T01:31:35.077Z,99.90
2022-10-03T01:34:12.433Z,99.90
2022-10-03T01:36:50.059Z,99.90
2022-10-03T01:39:28.007Z,99.90
2022-10-03T01:42:02.513Z,99.90
2022-10-03T01:44:42.601Z,99.90
2022-10-03T01:47:28.904Z,99.90
2022-10-03T01:50:03.286Z,99.90
2022-10-03T01:52:42.864Z,99.90
2022-10-03T01:55:22.049Z,99.90
2022-10-03T01:58:01.215Z,99.90
2022-10-03T02:00:38.204Z,99.90
2022-10-03T02:03:12.819Z,99.90
2022-10-03T02:05:49.595Z,99.90
2022-10-03T02:08:28.400Z,99.90
2022-10-03T02:11:02.623Z,99.90
2022-10-03T02:13:44.253Z,99.90
2022-10-03T02:16:23.177Z,99.90
2022-10-03T02:18:55.887Z,99.90
2022-10-03T02:21:28.182Z,99.90
2022-10-03T02:24:20.163Z,99.90
2022-10-03T02:27:30.927Z,99.90
2022-10-03T02:30:15.679Z,99.90
2022-10-03T02:33:20.476Z,99.90
2022-10-03T02:36:21.979Z,99.90
2022-10-03T02:39:27.313Z,99.90
2022-10-03T02:42:25.347Z,99.90
2022-10-03T02:45:24.511Z,99.90
2022-10-03T02:48:32.601Z,99.90
2022-10-03T02:51:45.817Z,99.90
2022-10-03T02:54:39.330Z,99.90
2022-10-03T02:57:56.089Z,99.90
2022-10-03T03:00:33.733Z,99.90
2022-10-03T03:03:39.315Z,99.90
2022-10-03T03:06:39.308Z,99.90
2022-10-03T03:09:55.224Z,99.90
2022-10-03T03:12:51.692Z,99.90
2022-10-03T03:15:59.976Z,99.90
2022-10-03T03:18:36.038Z,99.90
2022-10-03T03:21:16.366Z,99.90
2022-10-03T03:24:05.898Z,99.90
2022-10-03T03:26:56.925Z,99.90
2022-10-03T03:29:35.739Z,99.90
2022-10-03T03:32:14.096Z,99.90
2022-10-03T03:34:50.496Z,99.90
2022-10-03T03:37:27.792Z,99.90
2022-10-03T03:40:13.554Z,99.90
2022-10-03T03:43:13.578Z,99.90
2022-10-03T03:45:51.683Z,99.90
2022-10-03T03:48:55.535Z,99.90
2022-10-03T03:51:33.281Z,99.90
2022-10-03T03:54:23.528Z,99.90
2022-10-03T03:57:25.402Z,99.90
2022-10-03T04:00:08.093Z,99.90
2022-10-03T04:03:02.400Z,99.90
2022-10-03T04:05:46.035Z,99.90
2022-10-03T04:08:35.244Z,99.90
2022-10-03T04:11:23.198Z,99.90
2022-10-03T04:14:30.939Z,99.90
2022-10-03T04:17:33.527Z,99.90
2022-10-03T04:20:13.692Z,99.90
2022-10-03T04:23:04.673Z,99.90
2022-10-03T04:25:49.511Z,99.90
2022-10-03T04:28:51.344Z,99.90
2022-10-03T04:31:35.854Z,99.90
2022-10-03T04:34:19.485Z,99.90
2022-10-03T04:37:02.986Z,99.90
2022-10-03T04:39:38.535Z,99.90
2022-10-03T04:42:17.660Z,99.90
2022-10-03T04:45:08.790Z,99.90
2022-10-03T04:47:45.737Z,99.90
2022-10-03T04:50:31.366Z,99.90
2022-10-03T04:53:15.585Z,99.90
2022-10-03T04:55:49.261Z,99.90
2022-10-03T04:58:27.087Z,99.90
2022-10-03T05:01:06.401Z,99.90
2022-10-03T05:03:46.865Z,99.90
2022-10-03T05:06:32.824Z,99.90
2022-10-03T05:09:13.514Z,99.90
2022-10-03T05:11:50.589Z,99.90
2022-10-03T05:14:25.411Z,99.90
2022-10-03T05:17:03.638Z,99.90
2022-10-03T05:19:52.856Z,99.90
2022-10-03T05:22:40.348Z,99.90
2022-10-03T05:25:23.678Z,99.90
2022-10-03T05:27:59.904Z,99.90
2022-10-03T05:30:40.367Z,99.90
2022-10-03T05:33:18.873Z,99.90
2022-10-03T05:35:56.641Z,99.90
2022-10-03T05:39:02.294Z,99.90
2022-10-03T05:41:35.656Z,99.90
2022-10-03T05:44:10.119Z,99.90
2022-10-03T05:46:48.111Z,99.90
2022-10-03T05:49:37.096Z,99.90
2022-10-03T05:52:23.242Z,99.90
2022-10-03T05:55:17.931Z,99.90
2022-10-03T05:58:22.277Z,99.90
2022-10-03T06:01:10.076Z,99.90
2022-10-03T06:04:09.567Z,99.90
2022-10-03T06:06:53.395Z,99.90
2022-10-03T06:09:48.774Z,99.90
2022-10-03T06:12:24.810Z,99.90
2022-10-03T06:15:16.302Z,99.90
2022-10-03T06:17:58.048Z,99.90
2022-10-03T06:20:58.401Z,99.90
2022-10-03T06:23:59.661Z,99.90
2022-10-03T06:27:21.853Z,99.90
2022-10-03T06:30:19.201Z,99.90
2022-10-03T06:33:33.089Z,99.90
2022-10-03T06:36:40.487Z,99.90
2022-10-03T06:39:46.232Z,99.90
2022-10-03T06:42:38.271Z,99.90
2022-10-03T06:45:43.749Z,99.90
2022-10-03T06:48:46.414Z,99.90
2022-10-03T06:51:33.289Z,99.90
2022-10-03T06:54:26.145Z,99.90
2022-10-03T06:57:20.537Z,99.90
2022-10-03T07:00:16.718Z,99.90
2022-10-03T07:03:19.609Z,99.90
2022-10-03T07:06:15.739Z,99.90
2022-10-03T07:09:18.802Z,99.90
2022-10-03T07:12:47.462Z,99.90
2022-10-03T07:16:04.707Z,99.90
2022-10-03T07:18:54.711Z,99.90
2022-10-03T07:22:01.779Z,99.90
2022-10-03T07:25:19.249Z,99.90
2022-10-03T07:28:02.915Z,99.90
2022-10-03T07:30:47.120Z,99.90
2022-10-03T07:33:43.605Z,99.90
2022-10-03T07:36:51.763Z,99.90
2022-10-03T07:39:52.717Z,99.90
2022-10-03T07:42:51.207Z,99.90
2022-10-03T07:45:42.401Z,99.90
2022-10-03T07:48:53.032Z,99.90
2022-10-03T07:51:25.945Z,99.90
2022-10-03T07:54:42.149Z,99.90
2022-10-03T07:57:41.101Z,99.90
2022-10-03T08:00:24.405Z,99.90
2022-10-03T08:03:41.395Z,99.90
2022-10-03T08:06:19.658Z,99.90
2022-10-03T08:09:24.877Z,99.90
2022-10-03T08:12:17.681Z,99.90
2022-10-03T08:15:04.937Z,99.90
2022-10-03T08:18:08.292Z,99.90
2022-10-03T08:20:56.642Z,99.90
2022-10-03T08:24:00.425Z,99.90
2022-10-03T08:26:47.589Z,99.90
2022-10-03T08:29:38.605Z,99.90
2022-10-03T08:32:48.443Z,99.90
2022-10-03T08:35:49.568Z,99.90
2022-10-03T08:38:43.321Z,99.90
2022-10-03T08:41:45.771Z,99.90
2022-10-03T08:45:01.957Z,99.90
2022-10-03T08:47:58.964Z,99.90
2022-10-03T08:50:55.436Z,99.90
2022-10-03T08:54:05.368Z,99.90
2022-10-03T08:57:03.653Z,99.90
2022-10-03T09:00:06.142Z,99.90
2022-10-03T09:03:35.336Z,99.90
2022-10-03T09:06:58.717Z,99.90
2022-10-03T09:12:43.916Z,99.90
2022-10-03T09:15:48.584Z,99.90
2022-10-03T09:18:43.050Z,99.10
2022-10-03T09:21:39.897Z,99.60
2022-10-03T09:24:34.471Z,99.90
2022-10-03T09:27:24.504Z,99.90
2022-10-03T09:30:29.251Z,99.90
2022-10-03T09:33:36.954Z,99.90
2022-10-03T09:36:59.183Z,99.90
2022-10-03T09:39:57.030Z,99.90
2022-10-03T09:42:56.528Z,99.90
2022-10-03T09:45:52.446Z,99.90
2022-10-03T09:48:41.830Z,99.90
2022-10-03T09:51:22.369Z,99.90
2022-10-03T09:54:23.735Z,99.90
2022-10-03T09:57:13.947Z,99.90
2022-10-03T10:00:04.290Z,99.90
2022-10-03T10:03:11.517Z,99.90
2022-10-03T10:06:30.307Z,99.90
2022-10-03T10:09:33.457Z,99.90
2022-10-03T10:12:28.748Z,99.90
2022-10-03T10:15:21.777Z,99.90
2022-10-03T10:18:36.670Z,99.90
2022-10-03T10:21:38.516Z,99.90
2022-10-03T10:24:37.943Z,99.90
2022-10-03T10:27:34.320Z,99.90
2022-10-03T10:30:33.455Z,99.90
2022-10-03T10:33:42.642Z,99.90
2022-10-03T10:36:46.328Z,99.90
2022-10-03T10:40:02.408Z,98.60
2022-10-03T10:43:31.673Z,98.10
2022-10-03T10:46:23.359Z,97.40
2022-10-03T10:49:30.929Z,97.60
2022-10-03T10:52:33.479Z,97.50
2022-10-03T10:55:46.310Z,98.20
2022-10-03T10:58:44.156Z,99.90
2022-10-03T11:01:51.117Z,99.80
2022-10-03T11:05:07.162Z,99.90
2022-10-03T11:08:24.872Z,99.90
2022-10-03T11:11:13.730Z,99.90
2022-10-03T11:14:17.918Z,99.90
2022-10-03T11:17:29.190Z,99.90
2022-10-03T11:20:33.076Z,98.90
2022-10-03T11:23:43.022Z,99.10
2022-10-03T11:26:56.171Z,99.80
2022-10-03T11:30:08.687Z,99.90
2022-10-03T11:33:22.609Z,99.90
2022-10-03T11:36:27.330Z,99.90
2022-10-03T11:39:05.047Z,99.90
2022-10-03T11:41:45.849Z,98.70
2022-10-03T11:44:27.067Z,95.80
2022-10-03T11:47:05.984Z,93.40
2022-10-03T11:49:54.876Z,92.50
2022-10-03T11:52:31.283Z,93.20
2022-10-03T11:55:25.270Z,93.00
2022-10-03T11:58:05.825Z,94.00
2022-10-03T12:00:37.657Z,95.10
2022-10-03T12:03:17.378Z,95.60
2022-10-03T12:05:52.842Z,96.60
2022-10-03T12:08:45.611Z,97.10
2022-10-03T12:11:24.066Z,97.20
2022-10-03T12:14:11.282Z,96.00
2022-10-03T12:16:54.240Z,96.60
2022-10-03T12:19:31.986Z,96.90
2022-10-03T12:22:10.187Z,97.60
2022-10-03T12:24:42.362Z,96.70
2022-10-03T12:27:21.330Z,96.90
2022-10-03T12:29:58.300Z,96.80
2022-10-03T12:32:38.967Z,96.30
2022-10-03T12:35:19.922Z,94.40
2022-10-03T12:38:17.154Z,95.00
2022-10-03T12:40:54.112Z,94.80
2022-10-03T12:43:37.481Z,95.10
2022-10-03T12:46:12.337Z,94.50
2022-10-03T12:48:47.933Z,94.50
2022-10-03T12:51:24.468Z,94.30
2022-10-03T12:54:06.835Z,94.40
2022-10-03T12:56:44.896Z,94.00
2022-10-03T12:59:24.682Z,95.10
2022-10-03T13:02:17.442Z,94.00
2022-10-03T13:04:54.478Z,94.00
2022-10-03T13:07:29.298Z,93.60
2022-10-03T13:10:20.732Z,93.50
2022-10-03T13:12:54.674Z,93.70
2022-10-03T13:15:59.112Z,94.70
2022-10-03T13:18:39.484Z,94.70
2022-10-03T13:21:40.605Z,93.90
2022-10-03T13:24:06.519Z,94.30
2022-10-03T13:26:46.763Z,94.40
2022-10-03T13:29:26.099Z,94.10
2022-10-03T13:32:08.531Z,94.10
2022-10-03T13:34:48.313Z,94.50
2022-10-03T13:37:24.599Z,94.90
2022-10-03T13:40:06.013Z,95.20
2022-10-03T13:42:39.620Z,95.20
2022-10-03T13:45:17.648Z,95.00
2022-10-03T13:47:57.062Z,94.40
2022-10-03T13:50:44.467Z,94.20
2022-10-03T13:53:18.193Z,95.30
2022-10-03T13:55:52.884Z,94.00
2022-10-03T13:58:36.368Z,94.00
2022-10-03T14:01:35.556Z,94.80
2022-10-03T14:04:49.491Z,94.60
2022-10-03T14:07:28.301Z,95.50
2022-10-03T14:10:17.118Z,96.20
2022-10-03T14:13:12.208Z,96.60
2022-10-03T14:15:52.521Z,97.30
2022-10-03T14:18:33.536Z,97.90
2022-10-03T14:21:43.918Z,99.10
2022-10-03T14:24:26.466Z,98.90
2022-10-03T14:27:00.824Z,98.50
2022-10-03T14:29:38.294Z,98.80
2022-10-03T14:32:42.396Z,99.20
2022-10-03T14:35:14.034Z,99.10
2022-10-03T14:37:53.583Z,99.20
2022-10-03T14:40:28.284Z,99.90
2022-10-03T14:43:17.768Z,99.70
2022-10-03T14:45:50.444Z,99.90
2022-10-03T14:48:26.480Z,99.90
2022-10-03T14:51:05.361Z,99.90
2022-10-03T14:53:37.457Z,99.90
2022-10-03T14:56:09.403Z,99.90
2022-10-03T14:58:45.738Z,99.90
2022-10-03T15:01:16.204Z,99.90
2022-10-03T15:03:53.552Z,99.90
2022-10-03T15:06:36.905Z,99.90
2022-10-03T15:09:11.892Z,99.90
2022-10-03T15:11:49.464Z,99.90
2022-10-03T15:14:18.412Z,99.90
2022-10-03T15:16:50.578Z,99.90
2022-10-03T15:19:21.101Z,99.90
2022-10-03T15:21:53.011Z,99.90
2022-10-03T15:24:26.221Z,99.90
2022-10-03T15:27:00.692Z,99.90
2022-10-03T15:29:30.349Z,99.90
2022-10-03T15:31:59.534Z,99.90
2022-10-03T15:34:39.250Z,99.90
2022-10-03T15:37:16.723Z,99.90
2022-10-03T15:39:48.890Z,99.90
2022-10-03T15:42:26.314Z,99.90
2022-10-03T15:44:57.842Z,99.90
2022-10-03T15:47:28.123Z,99.90
2022-10-03T15:49:59.753Z,99.90
2022-10-03T15:52:34.281Z,99.90
2022-10-03T15:55:13.036Z,99.90
2022-10-03T15:57:47.311Z,99.90
2022-10-03T16:00:24.692Z,99.90
2022-10-03T16:02:59.891Z,99.90
2022-10-03T16:05:28.628Z,99.90
2022-10-03T16:08:01.686Z,99.90
2022-10-03T16:10:36.915Z,99.90
2022-10-03T16:13:17.652Z,99.90
2022-10-03T16:16:04.151Z,99.90
2022-10-03T16:18:47.131Z,99.90
2022-10-03T16:21:21.922Z,99.90
2022-10-03T16:23:53.834Z,99.90
2022-10-03T16:26:31.558Z,99.90
2022-10-03T16:29:11.726Z,99.90
2022-10-03T16:31:44.991Z,99.90
2022-10-03T16:34:16.758Z,99.90
2022-10-03T16:36:46.780Z,99.90
2022-10-03T16:39:22.599Z,99.90
2022-10-03T16:41:55.366Z,99.90
2022-10-03T16:44:32.616Z,99.90
2022-10-03T16:47:04.525Z,99.90
2022-10-03T16:49:57.262Z,99.90
2022-10-03T16:52:31.783Z,99.90
2022-10-03T16:55:03.006Z,99.90
2022-10-03T16:57:41.905Z,99.90
2022-10-03T17:00:16.626Z,99.90
2022-10-03T17:02:45.200Z,99.90
2022-10-03T17:05:16.000Z,99.90
2022-10-03T17:07:46.111Z,99.90
2022-10-03T17:10:38.118Z,99.90
2022-10-03T17:13:15.747Z,99.90
2022-10-03T17:15:50.384Z,99.90
2022-10-03T17:18:26.131Z,99.90
2022-10-03T17:21:01.032Z,99.90
2022-10-03T17:23:39.644Z,99.90
2022-10-03T17:26:11.412Z,99.90
2022-10-03T17:28:45.437Z,99.90
2022-10-03T17:31:30.116Z,99.90
2022-10-03T17:34:11.279Z,99.90
2022-10-03T17:37:11.542Z,99.90
2022-10-03T17:39:48.924Z,99.90
2022-10-03T17:42:31.465Z,99.90
2022-10-03T17:45:12.846Z,99.90
2022-10-03T17:47:54.655Z,99.90
2022-10-03T17:50:30.507Z,99.90
2022-10-03T17:53:01.198Z,99.90
2022-10-03T17:55:32.793Z,99.90
2022-10-03T17:58:05.139Z,99.90
2022-10-03T18:00:41.571Z,99.90
2022-10-03T18:03:14.770Z,99.90
2022-10-03T18:05:47.173Z,99.90
2022-10-03T18:08:19.933Z,99.90
2022-10-03T18:10:52.295Z,99.90
2022-10-03T18:13:25.229Z,99.90
2022-10-03T18:16:21.909Z,99.90
2022-10-03T18:19:05.410Z,99.90
2022-10-03T18:21:44.518Z,99.90
2022-10-03T18:24:26.010Z,99.90
2022-10-03T18:27:06.979Z,99.90
2022-10-03T18:29:38.208Z,99.90
2022-10-03T18:32:15.301Z,99.90
2022-10-03T18:34:48.274Z,99.90
2022-10-03T18:38:04.166Z,99.90
2022-10-03T18:40:36.233Z,99.90
2022-10-03T18:43:07.625Z,99.90
2022-10-03T18:45:43.810Z,99.90
2022-10-03T18:48:20.500Z,99.90
2022-10-03T18:50:57.203Z,99.90
2022-10-03T18:53:35.352Z,99.90
2022-10-03T18:56:06.947Z,99.90
2022-10-03T18:58:37.665Z,99.90
2022-10-03T19:01:09.239Z,99.90
2022-10-03T19:03:41.385Z,99.90
2022-10-03T19:06:19.598Z,99.90
2022-10-03T19:08:52.067Z,99.90
2022-10-03T19:11:25.551Z,99.90
2022-10-03T19:14:00.955Z,99.90
2022-10-03T19:16:43.051Z,99.90
2022-10-03T19:19:22.076Z,99.90
2022-10-03T19:21:51.255Z,99.90
2022-10-03T19:24:34.661Z,99.90
2022-10-03T19:27:14.705Z,99.90
2022-10-03T19:29:46.616Z,99.90
2022-10-03T19:32:23.228Z,99.90
2022-10-03T19:34:54.641Z,99.90
2022-10-03T19:37:45.125Z,99.90
2022-10-03T19:40:16.538Z,99.90
2022-10-03T19:42:51.088Z,99.90
2022-10-03T19:45:20.512Z,99.90
2022-10-03T19:47:52.847Z,99.90
2022-10-03T19:50:28.537Z,99.90
2022-10-03T19:52:56.812Z,99.90
2022-10-03T19:55:30.784Z,99.90
2022-10-03T19:58:01.143Z,99.90
2022-10-03T20:00:32.069Z,99.90
2022-10-03T20:03:14.567Z,99.90
2022-10-03T20:05:51.580Z,99.90
2022-10-03T20:08:25.144Z,99.90
2022-10-03T20:11:15.269Z,99.90
2022-10-03T20:13:44.144Z,99.90
2022-10-03T20:16:16.691Z,99.90
2022-10-03T20:18:47.988Z,99.90
2022-10-03T20:21:20.670Z,99.90
2022-10-03T20:23:49.948Z,99.90
2022-10-03T20:26:26.760Z,99.90
2022-10-03T20:29:15.639Z,99.90
2022-10-03T20:31:45.336Z,99.90
2022-10-03T20:34:17.297Z,99.90
2022-10-03T20:36:53.135Z,99.90
2022-10-03T20:39:24.540Z,99.90
2022-10-03T20:41:59.574Z,99.90
2022-10-03T20:44:47.624Z,99.90
2022-10-03T20:47:37.262Z,99.90
2022-10-03T20:50:16.849Z,99.90
2022-10-03T20:52:51.721Z,99.90
2022-10-03T20:55:24.384Z,99.90
2022-10-03T20:58:00.847Z,99.90
2022-10-03T21:00:31.183Z,99.90
2022-10-03T21:03:06.720Z,99.90
2022-10-03T21:05:38.034Z,99.90
2022-10-03T21:08:19.297Z,99.90
2022-10-03T21:10:54.675Z,99.90
2022-10-03T21:13:30.516Z,99.90
2022-10-03T21:15:59.579Z,99.90
2022-10-03T21:18:30.137Z,99.90
2022-10-03T21:21:07.839Z,99.90
2022-10-03T21:23:43.367Z,99.90
2022-10-03T21:26:12.404Z,99.90
2022-10-03T21:28:40.717Z,99.90
2022-10-03T21:31:35.908Z,99.90
2022-10-03T21:34:08.930Z,99.90
2022-10-03T21:36:49.354Z,99.90
2022-10-03T21:39:33.938Z,99.90
2022-10-03T21:42:12.592Z,99.90
2022-10-03T21:44:54.408Z,99.90
2022-10-03T21:47:44.978Z,99.90
2022-10-03T21:50:22.500Z,99.90
2022-10-03T21:53:04.403Z,99.90
2022-10-03T21:55:53.454Z,99.90
2022-10-03T21:58:52.256Z,99.90
2022-10-03T22:01:27.727Z,99.90
2022-10-03T22:04:00.390Z,99.90
2022-10-03T22:06:33.247Z,99.90
2022-10-03T22:09:03.388Z,99.90
2022-10-03T22:11:43.417Z,99.90
2022-10-03T22:14:22.234Z,99.90
2022-10-03T22:16:57.824Z,99.90
2022-10-03T22:19:35.892Z,99.90
2022-10-03T22:22:23.239Z,99.90
2022-10-03T22:25:17.500Z,99.90
2022-10-03T22:27:57.987Z,99.90
2022-10-03T22:30:26.313Z,99.90
2022-10-03T22:33:07.894Z,99.90
2022-10-03T22:35:47.924Z,99.90
2022-10-03T22:38:17.441Z,99.90
2022-10-03T22:40:47.665Z,99.90
2022-10-03T22:43:18.113Z,99.90
2022-10-03T22:45:50.937Z,99.90
2022-10-03T22:48:24.018Z,99.90
2022-10-03T22:50:53.778Z,99.90
2022-10-03T22:53:26.484Z,99.90
2022-10-03T22:56:32.986Z,99.90
2022-10-03T22:59:03.691Z,99.90
2022-10-03T23:01:32.533Z,99.90
2022-10-03T23:04:01.353Z,99.90
2022-10-03T23:06:44.857Z,99.90
2022-10-03T23:09:20.895Z,99.90
2022-10-03T23:11:53.084Z,99.90
2022-10-03T23:14:26.040Z,99.90
2022-10-03T23:16:57.518Z,99.90
2022-10-03T23:19:36.209Z,99.90
2022-10-03T23:22:07.831Z,99.90
2022-10-03T23:24:41.022Z,99.90
2022-10-03T23:27:30.644Z,99.90
2022-10-03T23:30:38.644Z,99.90
2022-10-03T23:33:17.606Z,99.90
2022-10-03T23:35:47.545Z,99.90
2022-10-03T23:38:54.796Z,99.90
2022-10-03T23:41:45.481Z,99.90
2022-10-03T23:44:55.848Z,99.90
2022-10-03T23:47:29.511Z,99.90
2022-10-03T23:50:00.905Z,99.90
2022-10-03T23:52:32.911Z,99.90
2022-10-03T23:55:06.900Z,99.90
2022-10-03T23:57:41.388Z,99.90
